Brecksville, Ohio
Current Conditions -  °F | °C
As of 5:53 PM on Thursday 18 Dec 2014 (Local Time) from KBKL Reporting Station
Overcast Overcast  
Wind Chill: 23°   Ceiling: 1700
Heat Index: 32°   Visibility: 10mi
Dew Point: 25°   Wind: 12mph
Humidity: 75%   Direction: 240°WSW
Pressure: 30.17"   Gusts: NA
Location:  41.32°N, 81.63°W
Report Text: KBKL 182253Z 24010KT 10SM OVC017 00/M04 A3017 RMK AO2 SLP222 T00001039
Loading
Personal Weather Stations






























Interactive Weather Map New forecast layout! Learn more

10-Day Weather Forecast

Advertisements
Track Severe Weather on mobile